sensor_id;sensor_type;location;lat;lon;timestamp;temperature;humidity
55830;DHT22;41759;53.330;6.002;2024-03-23T00:55:14;5.10;99.90
55830;DHT22;41759;53.330;6.002;2024-03-23T00:57:40;5.00;99.90
55830;DHT22;41759;53.330;6.002;2024-03-23T01:00:06;5.00;99.90
55830;DHT22;41759;53.330;6.002;2024-03-23T01:02:32;5.00;99.90
55830;DHT22;41759;53.330;6.002;2024-03-23T01:04:58;5.00;99.90
55830;DHT22;41759;53.330;6.002;2024-03-23T01:07:24;4.90;99.90
55830;DHT22;41759;53.330;6.002;2024-03-23T01:09:49;5.00;99.90
55830;DHT22;41759;53.330;6.002;2024-03-23T01:12:15;5.00;99.90
55830;DHT22;41759;53.330;6.002;2024-03-23T01:14:41;5.00;99.90
55830;DHT22;41759;53.330;6.002;2024-03-23T01:17:07;5.00;99.90
55830;DHT22;41759;53.330;6.002;2024-03-23T01:19:32;5.00;99.90
55830;DHT22;41759;53.330;6.002;2024-03-23T01:21:58;5.00;99.90
55830;DHT22;41759;53.330;6.002;2024-03-23T01:24:23;5.00;99.90
55830;DHT22;41759;53.330;6.002;2024-03-23T01:26:49;5.40;99.90
55830;DHT22;41759;53.330;6.002;2024-03-23T01:29:15;5.00;99.90
55830;DHT22;41759;53.330;6.002;2024-03-23T01:31:40;6.20;99.90
55830;DHT22;41759;53.330;6.002;2024-03-23T01:34:06;6.70;99.90
55830;DHT22;41759;53.330;6.002;2024-03-23T01:36:32;5.60;99.90
55830;DHT22;41759;53.330;6.002;2024-03-23T01:38:57;5.00;99.90
55830;DHT22;41759;53.330;6.002;2024-03-23T01:41:24;5.00;99.90
55830;DHT22;41759;53.330;6.002;2024-03-23T01:43:50;5.00;99.90
55830;DHT22;41759;53.330;6.002;2024-03-23T01:46:16;4.90;99.90
55830;DHT22;41759;53.330;6.002;2024-03-23T01:48:42;4.90;99.90
55830;DHT22;41759;53.330;6.002;2024-03-23T01:51:08;5.40;99.90
55830;DHT22;41759;53.330;6.002;2024-03-23T01:53:34;4.90;99.90
55830;DHT22;41759;53.330;6.002;2024-03-23T01:56:00;4.90;99.90
55830;DHT22;41759;53.330;6.002;2024-03-23T01:58:27;4.90;99.90
55830;DHT22;41759;53.330;6.002;2024-03-23T02:00:53;4.90;99.90
55830;DHT22;41759;53.330;6.002;2024-03-23T02:05:49;5.50;99.90
55830;DHT22;41759;53.330;6.002;2024-03-23T02:08:17;6.70;99.90
55830;DHT22;41759;53.330;6.002;2024-03-23T02:10:43;4.80;99.90
55830;DHT22;41759;53.330;6.002;2024-03-23T02:13:09;4.80;99.90
55830;DHT22;41759;53.330;6.002;2024-03-23T02:15:35;4.80;99.90
55830;DHT22;41759;53.330;6.002;2024-03-23T02:18:00;4.80;99.90
55830;DHT22;41759;53.330;6.002;2024-03-23T02:20:26;4.70;99.90
55830;DHT22;41759;53.330;6.002;2024-03-23T02:22:53;4.70;99.90
55830;DHT22;41759;53.330;6.002;2024-03-23T02:25:19;4.70;99.90
55830;DHT22;41759;53.330;6.002;2024-03-23T02:27:44;4.70;99.90
55830;DHT22;41759;53.330;6.002;2024-03-23T02:30:10;6.30;99.90
55830;DHT22;41759;53.330;6.002;2024-03-23T02:32:36;4.60;99.90
55830;DHT22;41759;53.330;6.002;2024-03-23T02:35:01;4.70;99.90
55830;DHT22;41759;53.330;6.002;2024-03-23T02:37:27;4.60;99.90
55830;DHT22;41759;53.330;6.002;2024-03-23T02:39:53;6.40;99.90
55830;DHT22;41759;53.330;6.002;2024-03-23T02:42:18;4.60;99.90
55830;DHT22;41759;53.330;6.002;2024-03-23T02:44:45;5.30;99.90
55830;DHT22;41759;53.330;6.002;2024-03-23T02:47:10;4.60;99.90
55830;DHT22;41759;53.330;6.002;2024-03-23T02:49:36;4.60;99.90
55830;DHT22;41759;53.330;6.002;2024-03-23T02:52:02;4.60;99.90
55830;DHT22;41759;53.330;6.002;2024-03-23T02:54:28;4.50;99.90
55830;DHT22;41759;53.330;6.002;2024-03-23T02:56:54;3.20;99.90
55830;DHT22;41759;53.330;6.002;2024-03-23T02:59:19;4.50;99.90
55830;DHT22;41759;53.330;6.002;2024-03-23T03:01:45;4.50;99.90
55830;DHT22;41759;53.330;6.002;2024-03-23T03:04:11;4.50;99.90
55830;DHT22;41759;53.330;6.002;2024-03-23T03:06:36;4.50;99.90
55830;DHT22;41759;53.330;6.002;2024-03-23T03:09:02;4.40;99.90
55830;DHT22;41759;53.330;6.002;2024-03-23T03:11:28;4.40;99.90
55830;DHT22;41759;53.330;6.002;2024-03-23T03:13:54;4.50;99.90
55830;DHT22;41759;53.330;6.002;2024-03-23T03:16:19;4.50;99.90
55830;DHT22;41759;53.330;6.002;2024-03-23T03:18:45;4.50;99.90
55830;DHT22;41759;53.330;6.002;2024-03-23T03:21:14;5.50;99.90
55830;DHT22;41759;53.330;6.002;2024-03-23T03:23:41;5.00;99.90
55830;DHT22;41759;53.330;6.002;2024-03-23T03:26:08;4.50;99.90
55830;DHT22;41759;53.330;6.002;2024-03-23T03:28:34;4.50;99.90
55830;DHT22;41759;53.330;6.002;2024-03-23T03:31:00;4.50;99.90
55830;DHT22;41759;53.330;6.002;2024-03-23T03:33:27;4.50;99.90
55830;DHT22;41759;53.330;6.002;2024-03-23T03:35:53;4.50;99.90
55830;DHT22;41759;53.330;6.002;2024-03-23T03:38:19;4.50;99.90
55830;DHT22;41759;53.330;6.002;2024-03-23T03:40:45;4.50;99.90
55830;DHT22;41759;53.330;6.002;2024-03-23T03:43:11;4.50;99.90
55830;DHT22;41759;53.330;6.002;2024-03-23T03:45:36;4.50;99.90
55830;DHT22;41759;53.330;6.002;2024-03-23T03:48:02;4.50;99.90
55830;DHT22;41759;53.330;6.002;2024-03-23T03:50:28;4.50;99.90
55830;DHT22;41759;53.330;6.002;2024-03-23T03:52:53;4.50;99.90
55830;DHT22;41759;53.330;6.002;2024-03-23T03:55:19;4.40;99.90
55830;DHT22;41759;53.330;6.002;2024-03-23T03:57:45;4.40;99.90
55830;DHT22;41759;53.330;6.002;2024-03-23T04:00:11;4.40;99.90
55830;DHT22;41759;53.330;6.002;2024-03-23T04:02:37;4.40;99.90
55830;DHT22;41759;53.330;6.002;2024-03-23T04:05:03;4.40;99.90
55830;DHT22;41759;53.330;6.002;2024-03-23T04:07:29;4.40;99.90
55830;DHT22;41759;53.330;6.002;2024-03-23T04:09:55;4.40;99.90
55830;DHT22;41759;53.330;6.002;2024-03-23T04:12:20;4.40;99.90
55830;DHT22;41759;53.330;6.002;2024-03-23T04:14:46;4.50;99.90
55830;DHT22;41759;53.330;6.002;2024-03-23T04:17:12;4.50;99.90
55830;DHT22;41759;53.330;6.002;2024-03-23T04:19:37;4.50;99.90
55830;DHT22;41759;53.330;6.002;2024-03-23T04:22:03;4.50;99.90
55830;DHT22;41759;53.330;6.002;2024-03-23T04:24:29;4.50;99.90
55830;DHT22;41759;53.330;6.002;2024-03-23T04:26:55;4.50;99.90
55830;DHT22;41759;53.330;6.002;2024-03-23T04:29:20;4.50;99.90
55830;DHT22;41759;53.330;6.002;2024-03-23T04:31:46;4.50;99.90
55830;DHT22;41759;53.330;6.002;2024-03-23T04:34:13;6.20;99.90
55830;DHT22;41759;53.330;6.002;2024-03-23T04:36:38;4.40;99.90
55830;DHT22;41759;53.330;6.002;2024-03-23T04:39:05;4.50;99.90
55830;DHT22;41759;53.330;6.002;2024-03-23T04:41:34;4.50;99.90
55830;DHT22;41759;53.330;6.002;2024-03-23T04:44:00;4.50;99.90
55830;DHT22;41759;53.330;6.002;2024-03-23T04:46:26;4.50;99.90
55830;DHT22;41759;53.330;6.002;2024-03-23T04:48:52;4.50;99.90
55830;DHT22;41759;53.330;6.002;2024-03-23T04:51:24;6.00;99.90
55830;DHT22;41759;53.330;6.002;2024-03-23T04:53:50;5.70;99.90
55830;DHT22;41759;53.330;6.002;2024-03-23T04:56:16;4.60;99.90
55830;DHT22;41759;53.330;6.002;2024-03-23T04:58:43;4.60;99.90
55830;DHT22;41759;53.330;6.002;2024-03-23T05:01:10;6.60;99.90
55830;DHT22;41759;53.330;6.002;2024-03-23T05:03:35;4.70;99.90
55830;DHT22;41759;53.330;6.002;2024-03-23T05:06:01;6.10;99.90
55830;DHT22;41759;53.330;6.002;2024-03-23T05:08:27;4.80;99.90
55830;DHT22;41759;53.330;6.002;2024-03-23T05:10:52;4.60;99.90
55830;DHT22;41759;53.330;6.002;2024-03-23T05:13:18;4.60;99.90
55830;DHT22;41759;53.330;6.002;2024-03-23T05:15:43;5.30;99.90
55830;DHT22;41759;53.330;6.002;2024-03-23T05:18:09;4.70;99.90
55830;DHT22;41759;53.330;6.002;2024-03-23T05:20:35;4.70;99.90
55830;DHT22;41759;53.330;6.002;2024-03-23T05:23:01;4.70;99.90
55830;DHT22;41759;53.330;6.002;2024-03-23T05:25:27;5.40;99.90
55830;DHT22;41759;53.330;6.002;2024-03-23T05:27:52;5.90;99.90
55830;DHT22;41759;53.330;6.002;2024-03-23T05:30:18;4.90;99.90
55830;DHT22;41759;53.330;6.002;2024-03-23T05:32:44;4.90;99.90
55830;DHT22;41759;53.330;6.002;2024-03-23T05:35:10;5.00;99.90
55830;DHT22;41759;53.330;6.002;2024-03-23T05:37:36;5.10;99.90
55830;DHT22;41759;53.330;6.002;2024-03-23T05:40:03;5.20;99.90
55830;DHT22;41759;53.330;6.002;2024-03-23T05:42:29;5.20;99.90
55830;DHT22;41759;53.330;6.002;2024-03-23T05:44:55;5.20;99.90
55830;DHT22;41759;53.330;6.002;2024-03-23T05:47:20;5.30;99.90
55830;DHT22;41759;53.330;6.002;2024-03-23T05:49:46;5.30;99.90
55830;DHT22;41759;53.330;6.002;2024-03-23T05:52:12;5.30;99.90
55830;DHT22;41759;53.330;6.002;2024-03-23T05:54:38;5.40;99.90
55830;DHT22;41759;53.330;6.002;2024-03-23T05:57:04;5.30;99.90
55830;DHT22;41759;53.330;6.002;2024-03-23T05:59:33;5.40;99.90
55830;DHT22;41759;53.330;6.002;2024-03-23T06:01:58;6.40;99.90
55830;DHT22;41759;53.330;6.002;2024-03-23T06:04:24;5.50;99.90
55830;DHT22;41759;53.330;6.002;2024-03-23T06:06:51;5.60;99.90
55830;DHT22;41759;53.330;6.002;2024-03-23T06:09:18;5.60;99.90
55830;DHT22;41759;53.330;6.002;2024-03-23T06:11:44;5.60;99.90
55830;DHT22;41759;53.330;6.002;2024-03-23T06:14:10;5.70;99.90
55830;DHT22;41759;53.330;6.002;2024-03-23T06:16:36;5.80;99.90
55830;DHT22;41759;53.330;6.002;2024-03-23T06:19:02;5.90;99.90
55830;DHT22;41759;53.330;6.002;2024-03-23T06:21:30;6.10;99.90
55830;DHT22;41759;53.330;6.002;2024-03-23T06:23:55;6.20;99.90
55830;DHT22;41759;53.330;6.002;2024-03-23T06:26:21;6.30;99.90
55830;DHT22;41759;53.330;6.002;2024-03-23T06:28:47;6.50;99.90
55830;DHT22;41759;53.330;6.002;2024-03-23T06:31:13;6.60;99.90
55830;DHT22;41759;53.330;6.002;2024-03-23T06:33:39;7.50;99.90
55830;DHT22;41759;53.330;6.002;2024-03-23T06:36:09;6.90;99.90
55830;DHT22;41759;53.330;6.002;2024-03-23T06:38:36;7.10;99.90
55830;DHT22;41759;53.330;6.002;2024-03-23T06:41:03;7.30;99.90
55830;DHT22;41759;53.330;6.002;2024-03-23T06:43:29;7.20;99.90
55830;DHT22;41759;53.330;6.002;2024-03-23T06:45:55;8.40;99.90
55830;DHT22;41759;53.330;6.002;2024-03-23T06:48:22;6.80;99.90
55830;DHT22;41759;53.330;6.002;2024-03-23T06:50:48;6.60;99.90
55830;DHT22;41759;53.330;6.002;2024-03-23T06:53:14;6.50;99.90
55830;DHT22;41759;53.330;6.002;2024-03-23T06:55:40;6.40;99.90
55830;DHT22;41759;53.330;6.002;2024-03-23T06:58:06;6.30;99.90
55830;DHT22;41759;53.330;6.002;2024-03-23T07:00:32;6.30;99.90
55830;DHT22;41759;53.330;6.002;2024-03-23T07:02:59;6.30;99.90
55830;DHT22;41759;53.330;6.002;2024-03-23T07:05:25;6.30;99.90
55830;DHT22;41759;53.330;6.002;2024-03-23T07:07:51;6.70;99.90
55830;DHT22;41759;53.330;6.002;2024-03-23T07:10:17;7.50;99.90
55830;DHT22;41759;53.330;6.002;2024-03-23T07:12:43;8.00;99.90
55830;DHT22;41759;53.330;6.002;2024-03-23T07:15:09;7.70;99.90
55830;DHT22;41759;53.330;6.002;2024-03-23T07:17:35;8.60;99.90
55830;DHT22;41759;53.330;6.002;2024-03-23T07:20:01;9.50;99.90
55830;DHT22;41759;53.330;6.002;2024-03-23T07:22:30;10.40;99.90
55830;DHT22;41759;53.330;6.002;2024-03-23T07:24:56;11.60;99.90
55830;DHT22;41759;53.330;6.002;2024-03-23T07:27:24;12.40;99.90
55830;DHT22;41759;53.330;6.002;2024-03-23T07:29:51;12.50;99.90
55830;DHT22;41759;53.330;6.002;2024-03-23T07:32:17;11.90;99.90
55830;DHT22;41759;53.330;6.002;2024-03-23T07:34:42;11.10;99.90
55830;DHT22;41759;53.330;6.002;2024-03-23T07:37:10;10.30;99.90
55830;DHT22;41759;53.330;6.002;2024-03-23T07:39:36;9.60;99.90
55830;DHT22;41759;53.330;6.002;2024-03-23T07:42:02;9.00;99.90
55830;DHT22;41759;53.330;6.002;2024-03-23T07:44:28;8.50;99.90
55830;DHT22;41759;53.330;6.002;2024-03-23T07:46:54;8.20;99.90
55830;DHT22;41759;53.330;6.002;2024-03-23T07:49:19;9.00;99.90
55830;DHT22;41759;53.330;6.002;2024-03-23T07:51:45;8.20;99.90
55830;DHT22;41759;53.330;6.002;2024-03-23T07:54:11;8.60;99.90
55830;DHT22;41759;53.330;6.002;2024-03-23T07:56:37;9.20;99.90
55830;DHT22;41759;53.330;6.002;2024-03-23T07:59:02;10.20;99.90
55830;DHT22;41759;53.330;6.002;2024-03-23T08:01:31;10.90;99.90
55830;DHT22;41759;53.330;6.002;2024-03-23T08:03:56;11.30;99.90
55830;DHT22;41759;53.330;6.002;2024-03-23T08:06:22;10.50;99.90
55830;DHT22;41759;53.330;6.002;2024-03-23T08:08:52;10.20;99.90
55830;DHT22;41759;53.330;6.002;2024-03-23T08:11:25;10.80;99.90
55830;DHT22;41759;53.330;6.002;2024-03-23T08:13:51;12.00;99.90
55830;DHT22;41759;53.330;6.002;2024-03-23T08:16:17;12.90;99.90
55830;DHT22;41759;53.330;6.002;2024-03-23T08:18:43;13.70;99.90
55830;DHT22;41759;53.330;6.002;2024-03-23T08:21:08;14.00;99.90
55830;DHT22;41759;53.330;6.002;2024-03-23T08:23:35;14.00;99.90
55830;DHT22;41759;53.330;6.002;2024-03-23T08:26:07;14.00;99.90
55830;DHT22;41759;53.330;6.002;2024-03-23T08:28:34;14.10;99.90
55830;DHT22;41759;53.330;6.002;2024-03-23T08:31:13;14.50;99.90
55830;DHT22;41759;53.330;6.002;2024-03-23T08:33:40;15.40;99.90
55830;DHT22;41759;53.330;6.002;2024-03-23T08:36:08;15.70;99.90
55830;DHT22;41759;53.330;6.002;2024-03-23T08:38:35;14.60;99.90
55830;DHT22;41759;53.330;6.002;2024-03-23T08:43:37;12.40;99.90
55830;DHT22;41759;53.330;6.002;2024-03-23T08:46:10;11.50;99.90
55830;DHT22;41759;53.330;6.002;2024-03-23T08:48:38;10.80;99.90
55830;DHT22;41759;53.330;6.002;2024-03-23T08:51:04;10.20;99.90
55830;DHT22;41759;53.330;6.002;2024-03-23T08:53:30;9.80;99.90
55830;DHT22;41759;53.330;6.002;2024-03-23T08:55:57;9.40;99.90
55830;DHT22;41759;53.330;6.002;2024-03-23T08:58:27;9.40;99.90
55830;DHT22;41759;53.330;6.002;2024-03-23T09:00:54;10.40;99.90
55830;DHT22;41759;53.330;6.002;2024-03-23T09:03:26;11.70;99.90
55830;DHT22;41759;53.330;6.002;2024-03-23T09:05:52;12.80;99.90
55830;DHT22;41759;53.330;6.002;2024-03-23T09:08:18;13.10;99.90
55830;DHT22;41759;53.330;6.002;2024-03-23T09:10:44;13.00;99.90
55830;DHT22;41759;53.330;6.002;2024-03-23T09:13:10;12.90;99.90
55830;DHT22;41759;53.330;6.002;2024-03-23T09:15:37;13.10;99.90
55830;DHT22;41759;53.330;6.002;2024-03-23T09:18:04;13.70;99.90
55830;DHT22;41759;53.330;6.002;2024-03-23T09:20:33;14.20;99.90
55830;DHT22;41759;53.330;6.002;2024-03-23T09:22:58;14.80;99.90
55830;DHT22;41759;53.330;6.002;2024-03-23T09:25:24;15.30;99.90
55830;DHT22;41759;53.330;6.002;2024-03-23T09:27:50;15.40;99.90
55830;DHT22;41759;53.330;6.002;2024-03-23T09:30:16;14.40;99.90
55830;DHT22;41759;53.330;6.002;2024-03-23T09:32:45;13.20;99.90
55830;DHT22;41759;53.330;6.002;2024-03-23T09:35:11;13.10;99.90
55830;DHT22;41759;53.330;6.002;2024-03-23T09:37:38;13.70;99.90
55830;DHT22;41759;53.330;6.002;2024-03-23T09:40:10;14.30;99.90
55830;DHT22;41759;53.330;6.002;2024-03-23T09:42:37;14.50;99.90
55830;DHT22;41759;53.330;6.002;2024-03-23T09:45:05;14.10;99.90
55830;DHT22;41759;53.330;6.002;2024-03-23T09:47:33;13.20;99.90
55830;DHT22;41759;53.330;6.002;2024-03-23T09:50:00;12.20;99.90
55830;DHT22;41759;53.330;6.002;2024-03-23T09:52:26;11.20;99.90
55830;DHT22;41759;53.330;6.002;2024-03-23T09:54:52;10.30;99.90
55830;DHT22;41759;53.330;6.002;2024-03-23T09:57:17;9.70;99.90
55830;DHT22;41759;53.330;6.002;2024-03-23T09:59:43;9.30;99.90
55830;DHT22;41759;53.330;6.002;2024-03-23T10:02:09;8.90;99.90
55830;DHT22;41759;53.330;6.002;2024-03-23T10:04:40;8.70;99.90
55830;DHT22;41759;53.330;6.002;2024-03-23T10:09:39;8.50;99.90
55830;DHT22;41759;53.330;6.002;2024-03-23T10:12:12;8.60;99.90
55830;DHT22;41759;53.330;6.002;2024-03-23T10:14:41;8.50;99.90
55830;DHT22;41759;53.330;6.002;2024-03-23T10:19:47;8.60;99.90
55830;DHT22;41759;53.330;6.002;2024-03-23T10:22:21;9.40;99.90
55830;DHT22;41759;53.330;6.002;2024-03-23T10:24:48;8.50;99.90
55830;DHT22;41759;53.330;6.002;2024-03-23T10:27:19;8.70;99.90
55830;DHT22;41759;53.330;6.002;2024-03-23T10:29:48;9.40;99.90
55830;DHT22;41759;53.330;6.002;2024-03-23T10:32:18;10.60;99.90
55830;DHT22;41759;53.330;6.002;2024-03-23T10:34:44;11.70;99.90
55830;DHT22;41759;53.330;6.002;2024-03-23T10:37:11;12.70;99.90
55830;DHT22;41759;53.330;6.002;2024-03-23T10:39:39;13.30;99.90
55830;DHT22;41759;53.330;6.002;2024-03-23T10:42:09;12.80;99.90
55830;DHT22;41759;53.330;6.002;2024-03-23T10:44:37;12.50;99.90
55830;DHT22;41759;53.330;6.002;2024-03-23T10:47:05;12.50;99.90
55830;DHT22;41759;53.330;6.002;2024-03-23T10:49:32;12.30;99.90
55830;DHT22;41759;53.330;6.002;2024-03-23T10:52:03;11.80;99.90
55830;DHT22;41759;53.330;6.002;2024-03-23T10:54:30;11.10;99.90
55830;DHT22;41759;53.330;6.002;2024-03-23T10:57:09;10.60;99.90
55830;DHT22;41759;53.330;6.002;2024-03-23T10:59:37;10.40;99.90
55830;DHT22;41759;53.330;6.002;2024-03-23T11:02:04;10.30;99.90
55830;DHT22;41759;53.330;6.002;2024-03-23T11:04:36;10.20;99.90
55830;DHT22;41759;53.330;6.002;2024-03-23T11:07:38;10.40;99.90
55830;DHT22;41759;53.330;6.002;2024-03-23T11:10:25;10.90;99.90
55830;DHT22;41759;53.330;6.002;2024-03-23T11:12:51;11.60;99.90
55830;DHT22;41759;53.330;6.002;2024-03-23T11:15:16;11.60;99.90
55830;DHT22;41759;53.330;6.002;2024-03-23T11:18:04;11.30;99.90
55830;DHT22;41759;53.330;6.002;2024-03-23T11:20:36;11.10;99.90
55830;DHT22;41759;53.330;6.002;2024-03-23T11:23:02;11.00;99.90
55830;DHT22;41759;53.330;6.002;2024-03-23T11:25:28;10.70;99.90
55830;DHT22;41759;53.330;6.002;2024-03-23T11:28:08;10.40;99.90
55830;DHT22;41759;53.330;6.002;2024-03-23T11:30:34;10.20;99.90
55830;DHT22;41759;53.330;6.002;2024-03-23T11:33:02;10.00;99.90
55830;DHT22;41759;53.330;6.002;2024-03-23T11:35:30;9.80;99.90
55830;DHT22;41759;53.330;6.002;2024-03-23T11:40:29;9.70;99.90
55830;DHT22;41759;53.330;6.002;2024-03-23T11:43:02;10.00;99.90
55830;DHT22;41759;53.330;6.002;2024-03-23T11:45:29;10.80;99.90
55830;DHT22;41759;53.330;6.002;2024-03-23T11:48:20;10.30;99.90
55830;DHT22;41759;53.330;6.002;2024-03-23T11:50:48;10.20;99.90
55830;DHT22;41759;53.330;6.002;2024-03-23T11:58:13;10.60;99.90
55830;DHT22;41759;53.330;6.002;2024-03-23T12:00:40;10.80;99.90
55830;DHT22;41759;53.330;6.002;2024-03-23T12:03:06;11.00;99.90
55830;DHT22;41759;53.330;6.002;2024-03-23T12:05:32;11.20;99.90
55830;DHT22;41759;53.330;6.002;2024-03-23T12:08:39;11.20;99.90
55830;DHT22;41759;53.330;6.002;2024-03-23T12:11:10;10.90;99.90
55830;DHT22;41759;53.330;6.002;2024-03-23T12:13:37;10.70;99.90
55830;DHT22;41759;53.330;6.002;2024-03-23T12:16:09;10.60;99.90
55830;DHT22;41759;53.330;6.002;2024-03-23T12:18:36;10.50;99.90
55830;DHT22;41759;53.330;6.002;2024-03-23T12:21:02;10.60;99.90
55830;DHT22;41759;53.330;6.002;2024-03-23T12:23:28;10.50;99.90
55830;DHT22;41759;53.330;6.002;2024-03-23T12:25:54;10.50;99.90
55830;DHT22;41759;53.330;6.002;2024-03-23T12:28:19;10.30;99.90
55830;DHT22;41759;53.330;6.002;2024-03-23T12:30:45;9.80;99.90
55830;DHT22;41759;53.330;6.002;2024-03-23T12:33:11;9.30;99.90
55830;DHT22;41759;53.330;6.002;2024-03-23T12:35:36;9.10;99.90
55830;DHT22;41759;53.330;6.002;2024-03-23T12:38:02;9.50;99.90
55830;DHT22;41759;53.330;6.002;2024-03-23T12:40:28;9.20;99.90
55830;DHT22;41759;53.330;6.002;2024-03-23T12:42:54;9.20;99.90
55830;DHT22;41759;53.330;6.002;2024-03-23T12:45:21;9.20;99.90
55830;DHT22;41759;53.330;6.002;2024-03-23T12:47:47;9.00;99.90
55830;DHT22;41759;53.330;6.002;2024-03-23T12:50:13;9.20;99.90
55830;DHT22;41759;53.330;6.002;2024-03-23T12:52:39;9.30;99.90
55830;DHT22;41759;53.330;6.002;2024-03-23T12:55:05;9.40;99.90
55830;DHT22;41759;53.330;6.002;2024-03-23T12:57:31;9.40;99.90
55830;DHT22;41759;53.330;6.002;2024-03-23T12:59:57;9.90;99.90
55830;DHT22;41759;53.330;6.002;2024-03-23T13:02:23;9.60;99.90
55830;DHT22;41759;53.330;6.002;2024-03-23T13:04:50;9.70;99.90
55830;DHT22;41759;53.330;6.002;2024-03-23T13:07:17;9.50;99.90
55830;DHT22;41759;53.330;6.002;2024-03-23T13:09:42;9.30;99.90
55830;DHT22;41759;53.330;6.002;2024-03-23T13:12:08;9.20;99.90
55830;DHT22;41759;53.330;6.002;2024-03-23T13:14:34;9.10;99.90
55830;DHT22;41759;53.330;6.002;2024-03-23T13:17:00;9.10;99.90
55830;DHT22;41759;53.330;6.002;2024-03-23T13:19:25;9.10;99.90
55830;DHT22;41759;53.330;6.002;2024-03-23T13:21:55;9.10;99.90
55830;DHT22;41759;53.330;6.002;2024-03-23T13:24:24;9.00;99.90
55830;DHT22;41759;53.330;6.002;2024-03-23T13:26:53;9.00;99.90
55830;DHT22;41759;53.330;6.002;2024-03-23T13:29:20;9.00;99.90
55830;DHT22;41759;53.330;6.002;2024-03-23T13:31:46;8.90;99.90
55830;DHT22;41759;53.330;6.002;2024-03-23T13:34:12;8.90;99.90
55830;DHT22;41759;53.330;6.002;2024-03-23T13:36:42;8.80;99.90
55830;DHT22;41759;53.330;6.002;2024-03-23T13:39:09;9.00;99.90
55830;DHT22;41759;53.330;6.002;2024-03-23T13:41:39;9.50;99.90
55830;DHT22;41759;53.330;6.002;2024-03-23T13:44:09;8.70;99.90
55830;DHT22;41759;53.330;6.002;2024-03-23T13:46:39;8.80;99.90
55830;DHT22;41759;53.330;6.002;2024-03-23T13:49:07;10.20;99.90
55830;DHT22;41759;53.330;6.002;2024-03-23T13:51:34;9.10;99.90
55830;DHT22;41759;53.330;6.002;2024-03-23T13:54:00;9.10;99.90
55830;DHT22;41759;53.330;6.002;2024-03-23T13:56:28;9.20;99.90
55830;DHT22;41759;53.330;6.002;2024-03-23T13:58:56;9.30;99.90
55830;DHT22;41759;53.330;6.002;2024-03-23T14:01:21;9.30;99.90
55830;DHT22;41759;53.330;6.002;2024-03-23T14:03:47;9.20;99.90
55830;DHT22;41759;53.330;6.002;2024-03-23T14:06:13;9.10;99.90
55830;DHT22;41759;53.330;6.002;2024-03-23T14:08:39;9.10;99.90
55830;DHT22;41759;53.330;6.002;2024-03-23T14:11:06;8.90;99.90
55830;DHT22;41759;53.330;6.002;2024-03-23T14:13:31;8.90;99.90
55830;DHT22;41759;53.330;6.002;2024-03-23T14:15:58;8.90;99.90
55830;DHT22;41759;53.330;6.002;2024-03-23T14:18:24;9.10;99.90
55830;DHT22;41759;53.330;6.002;2024-03-23T14:20:52;9.00;99.90
55830;DHT22;41759;53.330;6.002;2024-03-23T14:23:19;9.10;99.90
55830;DHT22;41759;53.330;6.002;2024-03-23T14:25:45;9.10;99.90
55830;DHT22;41759;53.330;6.002;2024-03-23T14:28:10;9.00;99.90
55830;DHT22;41759;53.330;6.002;2024-03-23T14:30:42;8.90;99.90
55830;DHT22;41759;53.330;6.002;2024-03-23T14:33:09;9.00;99.90
55830;DHT22;41759;53.330;6.002;2024-03-23T14:35:35;9.10;99.90
55830;DHT22;41759;53.330;6.002;2024-03-23T14:38:02;9.20;99.90
55830;DHT22;41759;53.330;6.002;2024-03-23T14:40:28;9.30;99.90
55830;DHT22;41759;53.330;6.002;2024-03-23T14:42:54;9.50;99.90
55830;DHT22;41759;53.330;6.002;2024-03-23T14:45:21;9.50;99.90
55830;DHT22;41759;53.330;6.002;2024-03-23T14:47:49;9.40;99.90
55830;DHT22;41759;53.330;6.002;2024-03-23T14:50:15;9.40;99.90
55830;DHT22;41759;53.330;6.002;2024-03-23T14:52:45;9.40;99.90
55830;DHT22;41759;53.330;6.002;2024-03-23T14:55:11;9.50;99.90
55830;DHT22;41759;53.330;6.002;2024-03-23T14:57:38;9.60;99.90
55830;DHT22;41759;53.330;6.002;2024-03-23T15:00:08;9.70;99.90
55830;DHT22;41759;53.330;6.002;2024-03-23T15:02:39;9.60;99.90
55830;DHT22;41759;53.330;6.002;2024-03-23T15:05:08;9.50;99.90
55830;DHT22;41759;53.330;6.002;2024-03-23T15:07:36;9.90;99.90
55830;DHT22;41759;53.330;6.002;2024-03-23T15:10:04;9.30;99.90
55830;DHT22;41759;53.330;6.002;2024-03-23T15:12:30;9.30;99.90
55830;DHT22;41759;53.330;6.002;2024-03-23T15:14:58;9.30;99.90
55830;DHT22;41759;53.330;6.002;2024-03-23T15:17:25;9.20;99.90
55830;DHT22;41759;53.330;6.002;2024-03-23T15:19:51;9.00;99.90
55830;DHT22;41759;53.330;6.002;2024-03-23T15:22:16;8.90;99.90
55830;DHT22;41759;53.330;6.002;2024-03-23T15:24:42;8.80;99.90
55830;DHT22;41759;53.330;6.002;2024-03-23T15:27:08;8.70;99.90
55830;DHT22;41759;53.330;6.002;2024-03-23T15:29:34;8.70;99.90
55830;DHT22;41759;53.330;6.002;2024-03-23T15:32:02;8.80;99.90
55830;DHT22;41759;53.330;6.002;2024-03-23T15:34:29;8.80;99.90
55830;DHT22;41759;53.330;6.002;2024-03-23T15:36:55;8.80;99.90
55830;DHT22;41759;53.330;6.002;2024-03-23T15:39:21;8.90;99.90
55830;DHT22;41759;53.330;6.002;2024-03-23T15:41:49;8.90;99.90
55830;DHT22;41759;53.330;6.002;2024-03-23T15:44:15;8.90;99.90
55830;DHT22;41759;53.330;6.002;2024-03-23T15:46:41;8.90;99.90
55830;DHT22;41759;53.330;6.002;2024-03-23T15:49:06;8.90;99.90
55830;DHT22;41759;53.330;6.002;2024-03-23T15:51:32;8.80;99.90
55830;DHT22;41759;53.330;6.002;2024-03-23T15:54:01;8.70;99.90
55830;DHT22;41759;53.330;6.002;2024-03-23T15:56:29;8.80;99.90
55830;DHT22;41759;53.330;6.002;2024-03-23T15:58:54;8.80;99.90
55830;DHT22;41759;53.330;6.002;2024-03-23T16:01:20;8.80;99.90
55830;DHT22;41759;53.330;6.002;2024-03-23T16:03:47;8.90;99.90
55830;DHT22;41759;53.330;6.002;2024-03-23T16:06:12;8.70;99.90
55830;DHT22;41759;53.330;6.002;2024-03-23T16:08:38;8.70;99.90
55830;DHT22;41759;53.330;6.002;2024-03-23T16:11:06;8.60;99.90
55830;DHT22;41759;53.330;6.002;2024-03-23T16:13:33;8.50;99.90
55830;DHT22;41759;53.330;6.002;2024-03-23T16:16:00;8.40;99.90
55830;DHT22;41759;53.330;6.002;2024-03-23T16:18:29;8.40;99.90
55830;DHT22;41759;53.330;6.002;2024-03-23T16:20:56;8.40;99.90
55830;DHT22;41759;53.330;6.002;2024-03-23T16:23:21;8.50;99.90
55830;DHT22;41759;53.330;6.002;2024-03-23T16:25:51;9.10;99.90
55830;DHT22;41759;53.330;6.002;2024-03-23T16:28:36;8.80;99.90
55830;DHT22;41759;53.330;6.002;2024-03-23T16:31:04;8.40;99.90
55830;DHT22;41759;53.330;6.002;2024-03-23T16:33:32;8.40;99.90
55830;DHT22;41759;53.330;6.002;2024-03-23T16:36:18;8.30;99.90
55830;DHT22;41759;53.330;6.002;2024-03-23T16:38:43;8.20;99.90
55830;DHT22;41759;53.330;6.002;2024-03-23T16:41:10;8.10;99.90
55830;DHT22;41759;53.330;6.002;2024-03-23T16:43:41;8.10;99.90
55830;DHT22;41759;53.330;6.002;2024-03-23T16:48:37;7.90;99.90
55830;DHT22;41759;53.330;6.002;2024-03-23T16:51:08;7.80;99.90
55830;DHT22;41759;53.330;6.002;2024-03-23T16:53:34;8.10;99.90
55830;DHT22;41759;53.330;6.002;2024-03-23T16:56:01;7.80;99.90